Terminal Aerodrome Forecast
Issued by NWS La Crosse, WI

Home | Current Version | Previous Version | Text Only | Print | Product List | Glossary On
Versions: 1 2 3 4 5 6 7 8 9 10 11 12 13 14 15 16 17 18 19 20 21
000
FTUS43 KARX 221403 AAA
TAFRST
TAF AMD
KRST 221403Z 2214/2312 19012G22KT P6SM VCSH BKN045
     FM221530 20010KT P6SM VCTS BKN050CB
      TEMPO 2216/2218 3SM TSRA BKN025CB
     FM221800 35006KT P6SM SHRA OVC050
      TEMPO 2218/2221 4SM TSRA OVC025CB
     FM222100 03007KT 6SM SHRA VCTS OVC035CB
     FM230000 03006KT P6SM -SHRA OVC040
     FM230200 36005KT P6SM BKN050
     FM230500 30005KT P6SM BKN090=

USA.gov is the U.S. government's official web portal to all federal, state and local government web resources and services.